Time;durP1;ratioP1;P1;durP2;ratioP2;P2;SDS_P1;SDS_P2;PMS_P1;PMS_P2;Temp;Humidity;BMP_temperature;BMP_pressure;BME280_temperature;BME280_humidity;BME280_pressure;Samples;Min_cycle;Max_cycle;Signal;HPM_P1;HPM_P2
2023/01/03 00:01:13;;;;;;;9.10;6.72;;;5.80;99.90;;;;;;4972938;28;20027;-86
2023/01/03 00:03:39;;;;;;;8.88;5.97;;;5.70;99.90;;;;;;4971749;28;20058;-86
2023/01/03 00:06:27;;;;;;;9.27;6.47;;;5.70;99.90;;;;;;5059995;28;20061;-86
2023/01/03 00:08:54;;;;;;;9.63;6.97;;;5.60;99.90;;;;;;5052808;28;20914;-86
2023/01/03 00:12:22;;;;;;;12.35;7.22;;;5.70;99.90;;;;;;4954549;28;20080;-86
2023/01/03 00:14:11;;;;;;;11.27;8.15;;;5.70;99.90;;;;;;4971275;28;20077;-86
2023/01/03 00:16:38;;;;;;;15.18;9.57;;;5.80;99.90;;;;;;4953906;28;20136;-87
2023/01/03 00:19:12;;;;;;;24.58;10.02;;;5.80;99.90;;;;;;5055257;28;20523;-86
2023/01/03 00:21:39;;;;;;;15.98;8.85;;;5.80;99.90;;;;;;4954729;28;20035;-86
2023/01/03 00:24:05;;;;;;;13.70;8.68;;;5.70;99.90;;;;;;4954693;28;20096;-86
2023/01/03 00:26:31;;;;;;;14.45;8.38;;;5.70;99.90;;;;;;4954368;28;20039;-87
2023/01/03 00:28:57;;;;;;;13.27;8.30;;;5.70;99.90;;;;;;5035507;28;20027;-86
2023/01/03 00:31:24;;;;;;;17.83;9.82;;;5.70;99.90;;;;;;4954719;28;20026;-86
2023/01/03 00:33:49;;;;;;;12.45;8.40;;;5.70;99.90;;;;;;5048552;28;20027;-86
2023/01/03 00:36:15;;;;;;;16.48;9.82;;;5.80;99.90;;;;;;5071103;28;20032;-86
2023/01/03 00:38:41;;;;;;;15.30;9.35;;;5.80;99.90;;;;;;5054862;28;20034;-86
2023/01/03 00:41:13;;;;;;;14.40;9.27;;;5.90;99.90;;;;;;5055168;28;20035;-87
2023/01/03 00:43:41;;;;;;;14.25;9.77;;;5.90;99.90;;;;;;5072341;28;20390;-86
2023/01/03 00:46:08;;;;;;;13.88;9.80;;;5.90;99.90;;;;;;4970553;28;20509;-86
2023/01/03 00:48:34;;;;;;;16.50;9.27;;;5.90;99.90;;;;;;5054883;28;20034;-87
2023/01/03 00:51:18;;;;;;;15.38;9.60;;;5.90;99.90;;;;;;4969418;28;20038;-87
2023/01/03 00:53:46;;;;;;;15.30;10.00;;;5.90;99.90;;;;;;4954486;28;20489;-86
2023/01/03 00:56:17;;;;;;;18.17;9.98;;;5.80;99.90;;;;;;4970545;28;20533;-86
2023/01/03 00:58:43;;;;;;;16.05;10.70;;;5.80;99.90;;;;;;4970225;28;20528;-86
2023/01/03 01:01:20;;;;;;;16.52;10.60;;;5.80;99.90;;;;;;5054743;28;20035;-86
2023/01/03 01:03:49;;;;;;;17.25;10.75;;;5.80;99.90;;;;;;4970367;28;20117;-86
2023/01/03 01:06:16;;;;;;;19.65;10.88;;;5.80;99.90;;;;;;5054654;28;20166;-86
2023/01/03 01:08:43;;;;;;;16.85;10.30;;;5.80;99.90;;;;;;4954202;28;20402;-86
2023/01/03 01:11:09;;;;;;;19.33;11.38;;;5.80;99.90;;;;;;5054825;28;20651;-86
2023/01/03 01:13:36;;;;;;;16.83;11.02;;;5.80;99.90;;;;;;4954091;28;20050;-86
2023/01/03 01:16:09;;;;;;;20.40;12.57;;;5.80;99.90;;;;;;5071261;28;20038;-86
2023/01/03 01:18:35;;;;;;;21.00;12.65;;;5.80;99.90;;;;;;4953550;28;20112;-86
2023/01/03 01:21:10;;;;;;;18.98;11.70;;;5.80;99.90;;;;;;4969989;28;20039;-86
2023/01/03 01:23:38;;;;;;;21.77;12.10;;;5.80;99.90;;;;;;4953937;28;20070;-86
2023/01/03 01:26:05;;;;;;;20.73;12.00;;;5.60;99.90;;;;;;5054333;28;20121;-86
2023/01/03 01:28:31;;;;;;;27.45;12.43;;;5.50;99.90;;;;;;4954128;28;20027;-86
2023/01/03 01:30:58;;;;;;;20.63;12.18;;;5.30;99.90;;;;;;4953749;28;20066;-86
2023/01/03 01:33:24;;;;;;;20.83;11.50;;;5.20;99.90;;;;;;4954131;28;20026;-86
2023/01/03 01:35:50;;;;;;;23.70;13.30;;;5.20;99.90;;;;;;4970508;28;20037;-87
2023/01/03 01:38:16;;;;;;;25.50;13.57;;;5.20;99.90;;;;;;4953975;28;20084;-86
2023/01/03 01:46:49;;;;;;;27.02;14.30;;;5.40;99.90;;;;;;4971680;28;20046;-86
2023/01/03 01:49:23;;;;;;;23.92;13.27;;;5.20;99.90;;;;;;4969685;28;20031;-86
2023/01/03 01:51:49;;;;;;;25.08;13.43;;;5.30;99.90;;;;;;4970200;28;20039;-86
2023/01/03 01:54:15;;;;;;;27.08;14.48;;;5.30;99.90;;;;;;4953707;28;20027;-87
2023/01/03 01:56:51;;;;;;;28.63;14.07;;;5.30;99.90;;;;;;4953867;28;20031;-86
2023/01/03 01:59:17;;;;;;;24.13;14.43;;;5.20;99.90;;;;;;4953500;28;20382;-86
2023/01/03 02:01:45;;;;;;;31.63;14.82;;;5.20;99.90;;;;;;4953664;28;20023;-86
2023/01/03 02:04:20;;;;;;;27.10;15.82;;;5.20;99.90;;;;;;4955499;28;20050;-86
2023/01/03 02:06:46;;;;;;;26.45;15.00;;;5.30;99.90;;;;;;4972394;28;20383;-86
2023/01/03 02:09:12;;;;;;;26.63;14.60;;;5.40;99.90;;;;;;4972810;28;20034;-86
2023/01/03 02:11:43;;;;;;;33.45;14.30;;;5.40;99.90;;;;;;4956608;28;20019;-86
2023/01/03 02:14:27;;;;;;;30.95;15.30;;;5.40;99.90;;;;;;5057902;28;20122;-86
2023/01/03 02:17:07;;;;;;;30.55;16.38;;;5.50;99.90;;;;;;4957173;28;20061;-86
2023/01/03 02:20:08;;;;;;;27.88;15.73;;;5.50;99.90;;;;;;5082494;28;20503;-86
2023/01/03 02:22:51;;;;;;;27.30;13.63;;;5.50;99.90;;;;;;4966383;28;20472;-86
2023/01/03 02:25:49;;;;;;;31.63;14.90;;;5.40;99.90;;;;;;4956631;28;20034;-86
2023/01/03 02:28:27;;;;;;;27.38;15.35;;;5.30;99.90;;;;;;4956469;28;20026;-86
2023/01/03 02:31:29;;;;;;;26.73;14.95;;;5.20;99.90;;;;;;4956452;28;20061;-87
2023/01/03 02:34:16;;;;;;;31.98;16.50;;;5.00;99.90;;;;;;4973288;28;20050;-87
2023/01/03 02:37:13;;;;;;;31.17;17.38;;;5.10;99.90;;;;;;4956649;28;20119;-87
2023/01/03 02:39:42;;;;;;;32.35;16.48;;;5.10;99.90;;;;;;4972498;28;20087;-86
2023/01/03 02:45:41;;;;;;;26.00;14.70;;;5.20;99.90;;;;;;4971661;28;20042;-86
2023/01/03 02:48:29;;;;;;;30.23;14.50;;;5.20;99.90;;;;;;4969693;28;20038;-86
2023/01/03 02:50:57;;;;;;;24.20;12.65;;;5.10;99.90;;;;;;4955868;28;20455;-87
2023/01/03 02:53:45;;;;;;;25.30;13.32;;;5.00;99.90;;;;;;5056676;28;20027;-87
2023/01/03 02:56:19;;;;;;;23.33;13.05;;;4.90;99.90;;;;;;4969884;28;20046;-86
2023/01/03 02:58:51;;;;;;;25.13;12.88;;;4.80;99.90;;;;;;4955967;28;20026;-86
2023/01/03 03:01:17;;;;;;;;;;;4.70;99.90;;;;;;5057101;28;20395;-86
2023/01/03 03:03:43;;;;;;;23.98;13.75;;;4.60;99.90;;;;;;4955858;28;19906;-87
2023/01/03 03:06:33;;;;;;;23.92;12.60;;;4.60;99.90;;;;;;5056200;28;20111;-86
2023/01/03 03:08:59;;;;;;;26.58;13.02;;;4.50;99.90;;;;;;4954697;28;20031;-86
2023/01/03 03:14:21;;;;;;;25.75;12.40;;;4.30;99.90;;;;;;4968791;28;20070;-87
2023/01/03 03:16:49;;;;;;;23.45;12.80;;;4.20;99.90;;;;;;4954914;28;20050;-86
2023/01/03 03:25:24;;;;;;;27.02;15.02;;;4.10;99.90;;;;;;5071661;28;20035;-86
2023/01/03 03:30:41;;;;;;;27.45;14.70;;;4.30;99.90;;;;;;4970690;28;20078;-86
2023/01/03 03:33:10;;;;;;;29.05;14.23;;;4.40;99.90;;;;;;4970874;28;20031;-86
2023/01/03 03:35:49;;;;;;;28.85;13.88;;;4.50;99.90;;;;;;4955111;28;20030;-86
2023/01/03 03:38:23;;;;;;;28.73;14.65;;;4.70;99.90;;;;;;4954813;28;20031;-86
2023/01/03 03:47:17;;;;;;;28.50;13.02;;;4.60;99.90;;;;;;4969477;28;20511;-86
2023/01/03 03:49:45;;;;;;;25.23;11.70;;;4.50;99.90;;;;;;4954308;28;20054;-86
2023/01/03 03:52:17;;;;;;;25.13;12.48;;;4.30;99.90;;;;;;4954566;28;20484;-86
2023/01/03 03:54:48;;;;;;;26.10;14.65;;;4.30;99.90;;;;;;4948936;28;20027;-87
2023/01/03 03:57:53;;;;;;;27.88;15.00;;;4.30;99.90;;;;;;4954391;28;20035;-86
2023/01/03 04:00:26;;;;;;;24.52;13.07;;;4.30;99.90;;;;;;4973992;28;20130;-86
2023/01/03 04:02:54;;;;;;;27.90;13.82;;;4.30;99.90;;;;;;4982862;28;20052;-86
2023/01/03 04:05:23;;;;;;;27.15;14.65;;;4.30;99.90;;;;;;4928387;28;1429895;-86
2023/01/03 04:07:49;;;;;;;29.88;15.45;;;4.30;99.90;;;;;;5055954;28;20039;-86
2023/01/03 04:10:19;;;;;;;31.67;15.15;;;4.50;99.90;;;;;;4970629;28;20042;-87
2023/01/03 04:12:46;;;;;;;32.67;14.30;;;4.60;99.90;;;;;;4971228;28;20553;-86
2023/01/03 04:15:13;;;;;;;29.15;15.70;;;4.70;99.90;;;;;;4954819;28;20495;-87
2023/01/03 04:17:38;;;;;;;30.08;16.08;;;4.70;99.90;;;;;;4970868;28;20027;-86
2023/01/03 04:20:04;;;;;;;30.08;15.25;;;4.70;99.90;;;;;;4954769;28;20030;-86
2023/01/03 04:22:30;;;;;;;28.13;15.32;;;4.70;99.90;;;;;;5055621;28;20023;-86
2023/01/03 04:24:56;;;;;;;27.67;15.15;;;4.80;99.90;;;;;;4970646;28;20031;-87
2023/01/03 04:27:21;;;;;;;27.13;15.13;;;4.70;99.90;;;;;;5055551;28;20038;-86
2023/01/03 04:29:47;;;;;;;34.05;15.25;;;4.70;99.90;;;;;;4954859;28;20049;-86
2023/01/03 04:32:13;;;;;;;27.08;14.77;;;4.60;99.90;;;;;;5055592;28;20031;-86
2023/01/03 04:34:39;;;;;;;27.15;14.48;;;4.50;99.90;;;;;;4970880;28;20031;-87
2023/01/03 04:37:04;;;;;;;33.10;15.38;;;4.50;99.90;;;;;;5055629;28;20058;-86
2023/01/03 04:39:30;;;;;;;26.95;14.48;;;4.40;99.90;;;;;;4970772;28;20027;-86
2023/01/03 04:41:56;;;;;;;31.30;15.20;;;4.50;99.90;;;;;;5055363;28;20022;-87
2023/01/03 04:44:21;;;;;;;32.55;14.70;;;4.50;99.90;;;;;;4970788;28;20031;-86
2023/01/03 04:46:47;;;;;;;29.98;15.20;;;4.40;99.90;;;;;;4970927;28;20141;-86
2023/01/03 04:49:13;;;;;;;29.55;14.77;;;4.40;99.90;;;;;;4954441;28;20031;-86
2023/01/03 04:51:39;;;;;;;27.23;14.90;;;4.30;99.90;;;;;;4954577;28;20109;-86
2023/01/03 04:54:05;;;;;;;28.25;15.55;;;4.20;99.90;;;;;;4970931;28;20027;-86
2023/01/03 04:56:33;;;;;;;29.92;15.18;;;4.20;99.90;;;;;;4969982;28;20031;-86
2023/01/03 04:59:00;;;;;;;29.42;15.38;;;4.10;99.90;;;;;;4970048;28;20039;-86
2023/01/03 05:01:26;;;;;;;38.33;17.83;;;4.20;99.90;;;;;;5054760;28;20088;-87
2023/01/03 05:03:59;;;;;;;35.78;16.88;;;4.10;99.90;;;;;;4954008;28;20043;-86
2023/01/03 05:06:26;;;;;;;36.38;17.35;;;4.20;99.90;;;;;;5055089;28;20729;-87
2023/01/03 05:09:04;;;;;;;33.60;15.80;;;4.20;99.90;;;;;;4954302;28;20440;-86
2023/01/03 05:11:30;;;;;;;29.77;15.68;;;4.20;99.90;;;;;;4970736;28;20023;-87
2023/01/03 05:13:56;;;;;;;34.97;16.45;;;4.10;99.90;;;;;;4970905;28;20023;-86
2023/01/03 05:16:22;;;;;;;28.88;15.27;;;3.90;99.90;;;;;;5054405;28;20105;-86
2023/01/03 05:18:50;;;;;;;30.02;15.02;;;3.80;99.90;;;;;;4953774;28;20035;-86
2023/01/03 05:26:47;;;;;;;32.50;15.52;;;3.40;99.90;;;;;;4971253;28;20164;-86
2023/01/03 05:29:17;;;;;;;33.30;15.68;;;3.30;99.90;;;;;;5054858;28;20034;-86
2023/01/03 05:31:43;;;;;;;31.60;15.13;;;3.20;99.90;;;;;;4953977;28;20026;-86
2023/01/03 05:34:09;;;;;;;37.03;16.98;;;3.10;99.90;;;;;;4953950;28;20027;-87
2023/01/03 05:36:35;;;;;;;37.22;16.70;;;3.10;99.90;;;;;;4953412;28;20377;-86
2023/01/03 05:39:00;;;;;;;34.58;16.55;;;3.10;99.90;;;;;;4969888;28;20031;-86
2023/01/03 05:44:10;;;;;;;47.92;17.42;;;3.10;99.90;;;;;;4970552;28;20038;-86
2023/01/03 05:46:36;;;;;;;36.75;16.08;;;3.10;99.90;;;;;;4962203;28;20042;-86
2023/01/03 05:49:02;;;;;;;37.95;17.33;;;3.10;99.90;;;;;;4969368;28;20121;-86
2023/01/03 05:51:27;;;;;;;45.80;19.00;;;3.30;99.90;;;;;;5054176;28;20022;-86
2023/01/03 05:53:53;;;;;;;42.15;18.20;;;3.50;99.90;;;;;;4969510;28;20035;-86
2023/01/03 05:56:19;;;;;;;37.75;17.38;;;3.60;99.90;;;;;;5054078;28;20027;-85
2023/01/03 05:58:45;;;;;;;41.60;17.85;;;3.80;99.90;;;;;;4953209;28;20042;-86
2023/01/03 06:01:52;;;;;;;35.83;17.13;;;3.80;99.90;;;;;;5054364;28;20122;-86
2023/01/03 06:04:18;;;;;;;31.05;14.82;;;3.90;99.90;;;;;;5010503;28;20490;-86
2023/01/03 06:06:44;;;;;;;39.45;16.67;;;3.90;99.90;;;;;;4969164;28;20065;-86
2023/01/03 06:09:10;;;;;;;31.13;14.23;;;3.80;99.90;;;;;;4953234;28;20027;-86
2023/01/03 06:11:35;;;;;;;36.63;15.75;;;3.60;99.90;;;;;;5054041;28;20101;-86
2023/01/03 06:14:02;;;;;;;39.05;15.45;;;3.50;99.90;;;;;;4954979;28;20054;-91
2023/01/03 06:19:12;;;;;;;27.80;13.35;;;3.20;99.90;;;;;;4970155;28;20038;-91
2023/01/03 06:21:37;;;;;;;29.73;15.02;;;3.10;99.90;;;;;;4957766;28;20060;-90
2023/01/03 06:24:03;;;;;;;31.30;15.07;;;3.00;99.90;;;;;;5074356;28;20030;-91
2023/01/03 06:26:29;;;;;;;35.58;15.48;;;2.90;99.90;;;;;;4971302;28;20043;-91
2023/01/03 06:28:55;;;;;;;34.95;17.13;;;2.90;99.90;;;;;;5056199;28;20037;-91
2023/01/03 06:31:21;;;;;;;42.05;19.00;;;3.00;99.90;;;;;;4970916;28;20026;-91
2023/01/03 06:33:47;;;;;;;32.95;17.50;;;3.00;99.90;;;;;;4971717;28;20027;-91
2023/01/03 06:36:16;;;;;;;38.25;18.50;;;2.80;99.90;;;;;;4955526;28;20035;-91
2023/01/03 06:38:44;;;;;;;39.58;19.30;;;2.60;99.90;;;;;;5008011;28;20486;-91
2023/01/03 06:41:12;;;;;;;40.35;19.02;;;2.50;99.90;;;;;;4955383;28;20027;-91
2023/01/03 06:43:39;;;;;;;39.58;17.00;;;2.50;99.90;;;;;;5056285;28;20108;-91
2023/01/03 06:54:30;;;;;;;36.90;13.25;;;2.30;99.90;;;;;;4968600;28;20031;-91
2023/01/03 06:56:56;;;;;;;25.00;12.15;;;2.20;99.90;;;;;;4952272;28;20058;-91
2023/01/03 06:59:23;;;;;;;22.42;10.98;;;2.00;99.90;;;;;;4957923;28;20038;-90
2023/01/03 07:01:51;;;;;;;27.45;12.40;;;1.90;99.90;;;;;;5076223;28;20031;-91
2023/01/03 07:04:17;;;;;;;26.88;11.95;;;1.80;99.90;;;;;;4974314;28;20039;-90
2023/01/03 07:06:43;;;;;;;27.77;12.43;;;1.70;99.90;;;;;;4958323;28;20037;-90
2023/01/03 07:09:09;;;;;;;25.60;11.60;;;1.60;99.90;;;;;;4959932;28;20113;-91
2023/01/03 07:11:38;;;;;;;25.35;12.10;;;1.50;99.90;;;;;;4973798;28;20042;-90
2023/01/03 07:14:06;;;;;;;36.33;14.55;;;1.40;99.90;;;;;;5076340;28;20470;-91
2023/01/03 07:16:35;;;;;;;32.35;14.73;;;1.50;99.90;;;;;;5059472;28;20035;-91
2023/01/03 07:19:02;;;;;;;31.60;13.98;;;1.60;99.90;;;;;;4954748;28;20360;-90
2023/01/03 07:21:32;;;;;;;32.97;14.45;;;1.50;99.90;;;;;;4955269;28;20121;-91
2023/01/03 07:24:02;;;;;;;36.05;16.42;;;1.40;99.90;;;;;;4996870;28;20086;-91
2023/01/03 07:26:29;;;;;;;38.47;17.73;;;1.30;99.90;;;;;;4960669;28;20125;-91
2023/01/03 07:28:56;;;;;;;44.25;19.45;;;1.30;99.90;;;;;;4957582;28;20034;-91
2023/01/03 07:31:22;;;;;;;46.63;21.25;;;1.30;99.90;;;;;;4957182;28;20035;-92
2023/01/03 07:33:48;;;;;;;59.63;25.98;;;1.30;99.90;;;;;;4957537;28;20034;-91
2023/01/03 07:36:45;;;;;;;59.92;30.35;;;1.30;99.90;;;;;;4958029;28;20031;-92
2023/01/03 07:39:11;;;;;;;58.13;27.45;;;1.20;99.90;;;;;;4973979;28;20470;-91
2023/01/03 07:44:21;;;;;;;62.67;27.45;;;1.30;99.90;;;;;;4973750;28;20031;-91
2023/01/03 07:46:47;;;;;;;69.13;28.25;;;1.30;99.90;;;;;;4957561;28;20038;-92
2023/01/03 07:49:12;;;;;;;57.60;25.33;;;1.40;99.90;;;;;;4957562;28;20066;-91
2023/01/03 07:51:38;;;;;;;53.35;24.65;;;1.40;99.90;;;;;;4973525;28;20051;-91
2023/01/03 07:54:06;;;;;;;76.65;26.42;;;1.50;99.90;;;;;;4957679;28;20397;-91
2023/01/03 07:56:31;;;;;;;80.22;28.50;;;1.70;99.90;;;;;;4973638;28;20049;-92
2023/01/03 07:58:58;;;;;;;142.98;31.05;;;1.90;99.90;;;;;;4973527;28;20122;-92
2023/01/03 08:01:24;;;;;;;74.07;26.45;;;2.10;99.90;;;;;;4963189;28;20049;-91
2023/01/03 08:03:54;;;;;;;60.70;23.55;;;2.30;99.90;;;;;;4961434;28;20038;-91
2023/01/03 08:06:22;;;;;;;92.00;20.08;;;2.50;99.90;;;;;;4973157;28;20034;-92
2023/01/03 08:14:16;;;;;;;91.03;25.00;;;2.50;99.90;;;;;;4972904;28;20421;-91
2023/01/03 08:17:19;;;;;;;55.63;25.10;;;2.40;99.90;;;;;;4956515;28;20043;-91
2023/01/03 08:19:45;;;;;;;55.50;16.73;;;2.30;99.90;;;;;;4972948;28;20756;-91
2023/01/03 08:23:01;;;;;;;39.83;15.98;;;2.20;99.90;;;;;;4957050;28;20110;-91
2023/01/03 08:25:27;;;;;;;29.90;13.05;;;2.20;99.90;;;;;;4956637;28;20062;-92
2023/01/03 08:27:57;;;;;;;36.28;14.73;;;2.10;99.90;;;;;;4956716;28;20038;-91
2023/01/03 08:30:23;;;;;;;47.08;14.35;;;2.00;99.90;;;;;;4972785;28;20123;-92
2023/01/03 08:32:49;;;;;;;37.80;15.50;;;1.90;99.90;;;;;;4955901;28;20035;-91
2023/01/03 08:35:15;;;;;;;45.63;19.33;;;1.90;99.90;;;;;;4956498;28;20031;-92
2023/01/03 08:37:46;;;;;;;45.42;19.27;;;1.90;99.90;;;;;;4956485;28;20034;-91
2023/01/03 08:40:16;;;;;;;52.35;22.17;;;2.10;99.90;;;;;;4956537;28;20095;-91
2023/01/03 08:42:46;;;;;;;50.33;21.85;;;2.20;99.90;;;;;;4974572;28;20065;-92
2023/01/03 08:45:17;;;;;;;54.63;24.30;;;2.30;99.90;;;;;;4978335;28;20049;-92
2023/01/03 08:47:44;;;;;;;66.30;25.00;;;2.60;99.90;;;;;;4958326;28;20035;-91
2023/01/03 08:50:11;;;;;;;60.30;25.35;;;2.80;99.90;;;;;;4956274;28;20035;-92
2023/01/03 08:52:36;;;;;;;70.68;25.65;;;3.10;99.90;;;;;;4956219;28;20490;-93
2023/01/03 08:55:03;;;;;;;60.65;25.67;;;3.40;99.90;;;;;;4955988;28;20037;-92
2023/01/03 08:57:29;;;;;;;162.07;31.25;;;3.70;99.90;;;;;;4956952;28;20129;-93
2023/01/03 08:59:55;;;;;;;482.70;49.10;;;3.80;99.90;;;;;;4956845;28;20465;-92
2023/01/03 09:02:20;;;;;;;244.85;34.15;;;3.90;99.90;;;;;;4972776;28;20034;-92
2023/01/03 09:04:46;;;;;;;414.42;33.10;;;4.00;99.90;;;;;;4956068;28;20034;-92
2023/01/03 09:07:12;;;;;;;178.43;21.52;;;4.10;99.90;;;;;;4956364;28;20495;-91
2023/01/03 09:09:37;;;;;;;240.30;24.77;;;4.20;99.90;;;;;;4956839;28;20023;-93
2023/01/03 09:12:03;;;;;;;205.95;20.60;;;4.30;99.90;;;;;;4955451;28;20031;-93
2023/01/03 09:14:29;;;;;;;188.23;20.75;;;4.40;99.90;;;;;;4955634;28;20037;-92
2023/01/03 09:16:55;;;;;;;33.53;15.98;;;4.40;99.90;;;;;;4972121;28;20637;-92
2023/01/03 09:19:21;;;;;;;82.82;19.55;;;4.60;99.90;;;;;;4956258;28;20050;-91
2023/01/03 09:21:47;;;;;;;312.65;25.38;;;4.70;99.90;;;;;;4955820;28;20034;-92
2023/01/03 09:24:12;;;;;;;215.63;31.58;;;4.80;99.90;;;;;;4956401;28;20034;-93
2023/01/03 09:26:38;;;;;;;141.93;23.80;;;4.90;99.90;;;;;;4956071;28;20046;-92
2023/01/03 09:29:06;;;;;;;145.40;17.73;;;5.20;99.90;;;;;;4955967;28;20430;-92
2023/01/03 09:31:33;;;;;;;79.93;14.77;;;5.30;99.90;;;;;;4971976;28;20026;-92
2023/01/03 09:34:04;;;;;;;137.60;18.45;;;5.40;99.90;;;;;;4972349;28;20027;-92
2023/01/03 09:36:30;;;;;;;115.43;16.52;;;5.60;99.90;;;;;;4972556;28;20031;-92
2023/01/03 09:38:56;;;;;;;136.43;17.30;;;5.60;99.90;;;;;;4956584;28;20030;-92
2023/01/03 09:41:25;;;;;;;56.03;14.20;;;5.70;99.90;;;;;;4955812;28;20074;-92
2023/01/03 09:43:59;;;;;;;35.28;14.75;;;5.50;99.90;;;;;;4971997;28;20099;-92
2023/01/03 09:46:26;;;;;;;48.78;19.60;;;5.50;99.90;;;;;;4956372;28;20074;-91
2023/01/03 09:48:56;;;;;;;58.60;25.85;;;5.50;99.90;;;;;;4971774;28;20030;-92
2023/01/03 10:06:06;;;;;;;26.50;14.57;;;5.60;99.90;;;;;;4971007;28;20063;-91
2023/01/03 10:09:00;;;;;;;42.17;19.38;;;5.70;99.90;;;;;;4954929;28;20038;-91
2023/01/03 10:11:38;;;;;;;34.83;17.67;;;5.50;99.90;;;;;;4956194;28;20027;-91
2023/01/03 10:14:17;;;;;;;37.85;19.15;;;5.40;99.90;;;;;;4955628;28;20083;-91
2023/01/03 10:17:11;;;;;;;36.17;17.73;;;5.60;99.90;;;;;;4955573;28;20035;-92
2023/01/03 10:19:43;;;;;;;38.05;17.33;;;5.80;99.90;;;;;;4955961;28;20035;-92
2023/01/03 10:22:23;;;;;;;35.83;17.90;;;5.90;99.90;;;;;;4955559;28;20062;-92
2023/01/03 10:25:12;;;;;;;33.25;18.85;;;5.80;99.90;;;;;;4973265;28;20810;-92
2023/01/03 10:27:44;;;;;;;39.63;19.38;;;5.70;99.90;;;;;;4958899;28;20109;-91
2023/01/03 10:30:18;;;;;;;33.13;18.90;;;5.70;99.90;;;;;;4958315;28;20118;-91
2023/01/03 10:32:48;;;;;;;41.85;18.77;;;5.80;99.90;;;;;;4958742;28;20041;-92
2023/01/03 10:35:32;;;;;;;31.92;18.45;;;5.80;99.90;;;;;;4958850;28;20436;-92
2023/01/03 10:37:58;;;;;;;33.55;18.80;;;6.10;99.90;;;;;;4958740;28;20039;-92
2023/01/03 10:40:33;;;;;;;29.10;17.02;;;6.40;99.90;;;;;;4958626;28;20130;-92
2023/01/03 10:43:07;;;;;;;28.02;16.42;;;6.60;99.90;;;;;;4959065;28;20023;-92
2023/01/03 10:45:33;;;;;;;24.33;14.90;;;6.60;99.90;;;;;;4958780;28;20039;-92
2023/01/03 10:48:00;;;;;;;25.05;14.98;;;6.40;99.90;;;;;;4958158;28;20030;-91
2023/01/03 10:51:02;;;;;;;18.33;12.63;;;6.40;99.90;;;;;;4958713;28;20042;-93
2023/01/03 10:53:28;;;;;;;18.42;11.60;;;6.60;99.90;;;;;;4974565;28;20031;-92
2023/01/03 10:55:56;;;;;;;17.83;10.70;;;6.70;99.90;;;;;;4957612;28;20096;-92
2023/01/03 10:58:25;;;;;;;18.73;10.80;;;6.80;99.90;;;;;;4958190;28;20390;-91
2023/01/03 11:01:17;;;;;;;15.60;10.07;;;6.80;99.90;;;;;;4957945;28;20035;-92
2023/01/03 11:03:43;;;;;;;17.05;9.88;;;6.70;99.90;;;;;;4974350;28;20037;-91
2023/01/03 11:06:14;;;;;;;14.60;11.30;;;6.80;99.90;;;;;;4974049;28;20031;-91
2023/01/03 11:08:56;;;;;;;13.82;9.23;;;6.90;99.90;;;;;;4958095;28;20041;-91
2023/01/03 11:11:29;;;;;;;13.15;9.80;;;7.00;99.90;;;;;;4957711;28;20129;-91
2023/01/03 11:14:22;;;;;;;14.38;8.18;;;7.00;99.90;;;;;;4973809;28;20054;-91
2023/01/03 11:17:03;;;;;;;10.43;7.93;;;7.00;99.90;;;;;;4957870;28;20038;-91
2023/01/03 11:19:31;;;;;;;12.77;7.75;;;7.00;99.90;;;;;;4957779;28;20043;-91
2023/01/03 11:22:16;;;;;;;20.85;11.18;;;7.00;99.90;;;;;;4973448;28;20034;-92
2023/01/03 11:25:18;;;;;;;16.45;8.38;;;7.00;99.90;;;;;;4957566;28;20043;-91
2023/01/03 11:28:02;;;;;;;19.80;7.28;;;7.20;99.90;;;;;;4957023;28;20659;-89
2023/01/03 11:30:39;;;;;;;16.60;6.93;;;7.70;99.90;;;;;;4973390;28;20039;-90
2023/01/03 11:33:19;;;;;;;18.13;7.40;;;8.00;99.90;;;;;;4957091;28;20035;-92
2023/01/03 11:36:09;;;;;;;9.27;5.90;;;8.00;99.90;;;;;;4957005;28;20132;-89
2023/01/03 11:38:47;;;;;;;14.75;6.40;;;8.10;99.90;;;;;;4957726;28;20034;-89
2023/01/03 11:41:51;;;;;;;11.00;6.10;;;8.20;99.90;;;;;;4957916;28;20044;-90
2023/01/03 11:44:32;;;;;;;9.50;5.00;;;8.50;99.90;;;;;;4957264;28;20039;-92
2023/01/03 11:47:00;;;;;;;8.90;4.73;;;8.70;99.90;;;;;;4957218;28;20038;-92
2023/01/03 11:49:42;;;;;;;12.43;4.50;;;9.10;99.90;;;;;;4956901;28;20066;-92
2023/01/03 11:52:28;;;;;;;10.95;3.35;;;9.60;99.90;;;;;;4957504;28;20450;-92
2023/01/03 11:55:12;;;;;;;8.00;4.90;;;9.90;99.90;;;;;;4957034;28;20038;-92
2023/01/03 11:58:08;;;;;;;7.82;3.47;;;10.20;99.90;;;;;;4957387;28;20023;-92
2023/01/03 12:00:57;;;;;;;10.63;4.20;;;10.50;99.90;;;;;;4957355;28;20042;-92
2023/01/03 12:03:23;;;;;;;6.65;3.15;;;10.00;99.90;;;;;;4957159;28;20030;-92
2023/01/03 12:06:10;;;;;;;8.60;4.13;;;9.30;99.90;;;;;;4956977;28;20376;-91
2023/01/03 12:09:01;;;;;;;7.82;4.80;;;8.70;99.90;;;;;;4956707;28;20031;-88
2023/01/03 12:12:06;;;;;;;5.50;4.17;;;8.20;99.90;;;;;;4956994;28;20125;-90
2023/01/03 12:14:59;;;;;;;6.70;2.83;;;8.00;99.90;;;;;;4957163;28;20440;-89
2023/01/03 12:17:36;;;;;;;5.80;3.47;;;7.80;99.90;;;;;;4956627;28;20037;-90
2023/01/03 12:20:19;;;;;;;6.57;3.65;;;8.00;99.90;;;;;;4956819;28;20398;-90
2023/01/03 12:23:14;;;;;;;7.63;2.95;;;8.20;99.90;;;;;;4956767;28;20027;-89
2023/01/03 12:25:49;;;;;;;6.63;2.58;;;8.10;99.90;;;;;;4956480;28;20039;-91
2023/01/03 12:28:31;;;;;;;7.88;2.72;;;8.00;99.90;;;;;;4956720;28;20117;-91
2023/01/03 12:31:02;;;;;;;10.50;3.20;;;8.00;99.90;;;;;;4972855;28;20068;-92
2023/01/03 12:34:08;;;;;;;7.25;3.70;;;7.90;99.90;;;;;;4957097;28;20035;-92
2023/01/03 12:36:51;;;;;;;9.68;4.80;;;7.90;99.90;;;;;;4956925;28;20041;-92
2023/01/03 12:39:32;;;;;;;12.02;6.72;;;8.20;99.90;;;;;;4956494;28;20035;-92
2023/01/03 12:42:22;;;;;;;7.25;4.45;;;8.30;99.90;;;;;;4956752;28;20036;-92
2023/01/03 12:45:13;;;;;;;8.70;4.05;;;8.40;99.90;;;;;;4956376;28;20787;-93
2023/01/03 12:47:58;;;;;;;11.63;4.78;;;8.40;99.90;;;;;;4958272;28;20146;-92
2023/01/03 12:50:33;;;;;;;6.72;3.83;;;8.30;99.90;;;;;;4956307;28;20502;-91
2023/01/03 12:53:10;;;;;;;12.55;4.72;;;8.30;99.90;;;;;;4972149;28;20037;-89
2023/01/03 12:56:01;;;;;;;7.65;3.72;;;8.20;99.90;;;;;;4956275;28;20042;-89
2023/01/03 12:58:38;;;;;;;83.10;32.90;;;8.20;99.90;;;;;;4955961;28;20130;-91
2023/01/03 13:01:14;;;;;;;87.13;32.75;;;8.20;99.90;;;;;;4956069;28;20038;-92
2023/01/03 13:04:00;;;;;;;7.93;3.55;;;8.10;99.90;;;;;;4955781;28;20184;-91
2023/01/03 13:06:34;;;;;;;8.15;3.08;;;8.00;99.90;;;;;;4955589;28;20041;-91
2023/01/03 13:09:30;;;;;;;6.20;3.63;;;8.00;99.90;;;;;;4971444;28;20034;-90
2023/01/03 13:12:03;;;;;;;9.80;3.53;;;8.10;99.90;;;;;;4973071;28;20049;-92
2023/01/03 13:14:29;;;;;;;6.53;3.85;;;8.00;99.90;;;;;;4956168;28;20027;-91
2023/01/03 13:17:05;;;;;;;11.75;4.03;;;7.90;99.90;;;;;;4956189;28;20033;-93
2023/01/03 13:19:34;;;;;;;11.25;3.35;;;7.80;99.90;;;;;;4971552;28;20038;-91
2023/01/03 13:22:17;;;;;;;8.38;3.47;;;7.60;99.90;;;;;;4955590;28;20379;-92
2023/01/03 13:24:45;;;;;;;11.77;3.80;;;7.60;99.90;;;;;;4955632;28;20125;-91
2023/01/03 13:27:21;;;;;;;9.98;2.95;;;7.70;99.90;;;;;;4954904;28;20437;-92
2023/01/03 13:29:50;;;;;;;5.93;3.35;;;7.70;99.90;;;;;;4955480;28;20030;-91
2023/01/03 13:32:22;;;;;;;7.20;3.67;;;7.70;99.90;;;;;;4955835;28;20035;-91
2023/01/03 13:34:53;;;;;;;12.70;4.18;;;7.60;99.90;;;;;;4971283;28;20517;-91
2023/01/03 13:37:27;;;;;;;6.57;3.38;;;7.50;99.90;;;;;;4955119;28;20031;-91
2023/01/03 13:40:09;;;;;;;7.82;4.05;;;7.40;99.90;;;;;;4955203;28;20027;-91
2023/01/03 13:42:39;;;;;;;10.02;3.33;;;7.30;99.90;;;;;;4971499;28;20023;-92
2023/01/03 13:45:31;;;;;;;9.32;2.80;;;7.30;99.90;;;;;;4955567;28;20023;-92
2023/01/03 13:47:57;;;;;;;6.90;3.13;;;7.30;99.90;;;;;;4977240;28;20402;-92
2023/01/03 13:50:24;;;;;;;3.67;2.65;;;7.20;99.90;;;;;;4987530;28;20747;-91
2023/01/03 13:52:57;;;;;;;9.35;3.13;;;7.10;99.90;;;;;;4954968;28;20126;-91
2023/01/03 13:55:37;;;;;;;6.53;2.97;;;7.00;99.90;;;;;;4970890;28;20074;-92
2023/01/03 13:58:22;;;;;;;6.60;3.78;;;6.90;99.90;;;;;;4971523;28;20030;-92
2023/01/03 14:00:53;;;;;;;10.63;4.30;;;6.90;99.90;;;;;;4959527;28;20030;-92
2023/01/03 14:03:25;;;;;;;6.68;4.18;;;6.90;99.90;;;;;;4959253;28;20074;-91
2023/01/03 14:06:23;;;;;;;8.05;4.00;;;7.00;99.90;;;;;;4958561;28;20051;-92
2023/01/03 14:09:16;;;;;;;10.50;4.78;;;7.10;99.90;;;;;;4958336;28;20424;-91
2023/01/03 14:12:05;;;;;;;9.23;4.65;;;7.20;99.90;;;;;;4958565;28;20039;-90
2023/01/03 14:14:36;;;;;;;9.77;5.10;;;7.30;99.90;;;;;;4958090;28;20391;-91
2023/01/03 14:17:03;;;;;;;11.65;4.53;;;7.30;99.90;;;;;;4958741;28;20397;-93
2023/01/03 14:19:33;;;;;;;11.02;4.05;;;7.30;99.90;;;;;;4958421;28;20126;-90